Time;durP1;ratioP1;P1;durP2;ratioP2;P2;SDS_P1;SDS_P2;PMS_P1;PMS_P2;Temp;Humidity;BMP_temperature;BMP_pressure;BME280_temperature;BME280_humidity;BME280_pressure;Samples;Min_cycle;Max_cycle;Signal;HPM_P1;HPM_P2
2023/03/01 00:10:31;;;;;;;;;;;;;;;;;;5034343;28;6673;-60
2023/03/01 00:12:56;;;;;;;;;;;;;;;;;;5034479;28;6963;-60
2023/03/01 00:15:22;;;;;;;;;;;;;;;;;;5034492;28;7123;-60
2023/03/01 00:17:47;;;;;;;;;;;;;;;;;;5035661;28;7390;-60
2023/03/01 00:20:13;;;;;;;;;;;;;;;;;;5034242;28;7519;-60
2023/03/01 00:22:38;;;;;;;;;;;;;;;;;;5034415;28;7161;-60
2023/03/01 00:25:04;;;;;;;;;;;;;;;;;;5033994;28;7223;-60
2023/03/01 00:27:29;;;;;;;;;;;;;;;;;;5035625;28;7270;-60
2023/03/01 00:29:55;;;;;;;;;;;;;;;;;;5034342;28;7096;-60
2023/03/01 00:32:36;;;;;;;;;;;;;;;;;;5034355;28;7037;-60
2023/03/01 00:35:01;;;;;;;;;;;;;;;;;;5034306;28;7281;-60
2023/03/01 00:43:39;;;;;;;;;;;;;;;;;;5014193;28;6971;-60
2023/03/01 00:49:07;;;;;;;;;;;;;;;;;;5014242;28;6677;-60
2023/03/01 00:51:41;;;;;;;;;;;;;;;;;;5014515;28;7083;-60
2023/03/01 00:54:08;;;;;;;;;;;;;;;;;;5014093;28;7000;-60
2023/03/01 00:56:34;;;;;;;;;;;;;;;;;;5016139;28;8449;-60
2023/03/01 01:02:02;;;;;;;;;;;;;;;;;;5017553;28;7110;-60
2023/03/01 01:04:28;;;;;;;;;;;;;;;;;;5017847;28;7034;-60
2023/03/01 01:09:45;;;;;;;;;;;;;;;;;;;;;
2023/03/01 01:12:24;;;;;;;;;;;;;;;;;;5025830;28;6808;-96
2023/03/01 01:15:12;;;;;;;;;;;;;;;;;;5038534;28;6973;-96
2023/03/01 01:17:49;;;;;;;;;;;;;;;;;;5024846;28;6892;-96
2023/03/01 01:20:26;;;;;;;;;;;;;;;;;;5021873;28;6893;-96
2023/03/01 01:23:03;;;;;;;;;;;;;;;;;;5021688;28;6895;-96
2023/03/01 01:25:59;;;;;;;;;;;;;;;;;;5022397;28;6899;-96
2023/03/01 01:28:48;;;;;;;;;;;;;;;;;;5021659;28;6878;-96
2023/03/01 01:31:23;;;;;;;;;;;;;;;;;;5038767;28;6941;-96
2023/03/01 01:34:03;;;;;;;;;;;;;;;;;;;;;
2023/03/01 01:36:43;;;;;;;;;;;;;;;;;;;;;
2023/03/01 01:39:29;;;;;;;;;;;;;;;;;;5034827;28;6848;-96
2023/03/01 01:42:18;;;;;;;;;;;;;;;;;;5018669;28;6967;-96
2023/03/01 01:48:07;;;;;;;;;;;;;;;;;;5017648;28;6864;-96
2023/03/01 01:50:47;;;;;;;;;;;;;;;;;;5018006;28;6879;-96
2023/03/01 01:53:25;;;;;;;;;;;;;;;;;;5001551;28;6810;-96
2023/03/01 01:56:19;;;;;;;;;;;;;;;;;;;;;
2023/03/01 02:01:19;;;;;;;;;;;;;;;;;;5035493;28;7040;-60
2023/03/01 02:03:46;;;;;;;;;;;;;;;;;;5018437;28;6983;-60
2023/03/01 02:06:32;;;;;;;;;;;;;;;;;;5016205;28;7139;-60
2023/03/01 02:09:01;;;;;;;;;;;;;;;;;;4996779;28;7394;-60
2023/03/01 02:11:37;;;;;;;;;;;;;;;;;;5002920;28;7124;-60
2023/03/01 02:14:10;;;;;;;;;;;;;;;;;;5016079;28;6980;-60
2023/03/01 02:16:58;;;;;;;;;;;;;;;;;;5014247;28;7203;-60
2023/03/01 02:19:42;;;;;;;;;;;;;;;;;;5013792;28;8165;-60
2023/03/01 02:22:27;;;;;;;;;;;;;;;;;;5016891;28;6971;-60
2023/03/01 02:28:02;;;;;;;;;;;;;;;;;;5016322;28;6789;-60
2023/03/01 02:30:29;;;;;;;;;;;;;;;;;;5016162;28;7059;-60
2023/03/01 02:33:03;;;;;;;;;;;;;;;;;;5016064;28;7177;-60
2023/03/01 02:35:32;;;;;;;;;;;;;;;;;;5013211;28;7166;-60
2023/03/01 02:38:00;;;;;;;;;;;;;;;;;;5015891;28;7040;-60
2023/03/01 02:40:28;;;;;;;;;;;;;;;;;;5016040;28;7362;-60
2023/03/01 02:42:56;;;;;;;;;;;;;;;;;;5015674;28;7098;-60
2023/03/01 02:45:22;;;;;;;;;;;;;;;;;;5015993;28;7156;-60
2023/03/01 02:47:49;;;;;;;;;;;;;;;;;;5015549;28;8083;-60
2023/03/01 02:50:30;;;;;;;;;;;;;;;;;;5016682;28;7161;-60
2023/03/01 02:53:13;;;;;;;;;;;;;;;;;;5015275;28;8017;-60
2023/03/01 02:58:47;;;;;;;;;;;;;;;;;;5015543;28;6901;-60
2023/03/01 03:01:14;;;;;;;;;;;;;;;;;;5014687;28;7581;-60
2023/03/01 03:03:41;;;;;;;;;;;;;;;;;;5009931;28;7077;-60
2023/03/01 03:06:07;;;;;;;;;;;;;;;;;;4995526;28;7216;-60
2023/03/01 03:08:51;;;;;;;;;;;;;;;;;;5007394;28;6979;-60
2023/03/01 03:11:16;;;;;;;;;;;;;;;;;;5015216;28;7316;-60
2023/03/01 03:13:47;;;;;;;;;;;;;;;;;;5015449;28;7154;-60
2023/03/01 03:22:19;;;;;;;;;;;;;;;;;;5014953;28;7033;-60
2023/03/01 03:24:53;;;;;;;;;;;;;;;;;;5014770;28;8119;-60
2023/03/01 03:27:19;;;;;;;;;;;;;;;;;;5015093;28;7312;-60
2023/03/01 03:32:54;;;;;;;;;;;;;;;;;;5014924;28;6943;-60
2023/03/01 03:35:21;;;;;;;;;;;;;;;;;;5015070;28;7109;-60
2023/03/01 03:38:03;;;;;;;;;;;;;;;;;;5015247;28;7185;-60
2023/03/01 03:40:30;;;;;;;;;;;;;;;;;;5015121;28;7395;-60
2023/03/01 03:42:56;;;;;;;;;;;;;;;;;;5014696;28;7192;-60
2023/03/01 03:48:25;;;;;;;;;;;;;;;;;;5014518;28;6919;-60
2023/03/01 03:50:52;;;;;;;;;;;;;;;;;;5014455;28;7986;-60
2023/03/01 03:53:19;;;;;;;;;;;;;;;;;;5014679;28;6949;-60
2023/03/01 03:55:48;;;;;;;;;;;;;;;;;;5014469;28;7008;-60
2023/03/01 03:58:16;;;;;;;;;;;;;;;;;;5012342;28;7450;-60
2023/03/01 04:00:44;;;;;;;;;;;;;;;;;;5013172;28;7250;-60
2023/03/01 04:03:11;;;;;;;;;;;;;;;;;;5014313;28;7157;-60
2023/03/01 04:05:37;;;;;;;;;;;;;;;;;;5014035;28;7226;-60
2023/03/01 04:08:09;;;;;;;;;;;;;;;;;;5014365;28;7129;-60
2023/03/01 04:10:37;;;;;;;;;;;;;;;;;;5012341;28;7026;-60
2023/03/01 04:13:30;;;;;;;;;;;;;;;;;;5013637;28;7057;-48
2023/03/01 04:15:56;;;;;;;;;;;;;;;;;;5011716;28;7238;-49
2023/03/01 04:18:53;;;;;;;;;;;;;;;;;;5014188;28;6880;-60
2023/03/01 04:21:20;;;;;;;;;;;;;;;;;;5012016;28;7416;-60
2023/03/01 04:23:45;;;;;;;;;;;;;;;;;;5013418;28;7526;-60
2023/03/01 04:26:11;;;;;;;;;;;;;;;;;;5013520;28;7028;-60
2023/03/01 04:28:47;;;;;;;;;;;;;;;;;;5014374;28;7386;-60
2023/03/01 04:31:17;;;;;;;;;;;;;;;;;;5016391;28;7145;-60
2023/03/01 04:34:10;;;;;;;;;;;;;;;;;;5018070;28;7488;-60
2023/03/01 04:36:35;;;;;;;;;;;;;;;;;;5017523;28;7343;-60
2023/03/01 04:39:11;;;;;;;;;;;;;;;;;;5018159;28;7180;-60
2023/03/01 04:41:39;;;;;;;;;;;;;;;;;;5017672;28;7263;-60
2023/03/01 04:44:04;;;;;;;;;;;;;;;;;;5017905;28;7218;-60
2023/03/01 04:46:40;;;;;;;;;;;;;;;;;;5018173;28;7006;-60
2023/03/01 04:49:06;;;;;;;;;;;;;;;;;;5018166;28;7333;-60
2023/03/01 04:57:35;;;;;;;;;;;;;;;;;;5018641;28;6983;-60
2023/03/01 05:00:19;;;;;;;;;;;;;;;;;;5017212;28;7065;-60
2023/03/01 05:02:52;;;;;;;;;;;;;;;;;;5017353;28;7128;-60
2023/03/01 05:05:25;;;;;;;;;;;;;;;;;;5017166;28;7344;-60
2023/03/01 05:07:51;;;;;;;;;;;;;;;;;;5018145;28;7313;-60
2023/03/01 05:10:23;;;;;;;;;;;;;;;;;;5017050;28;7239;-60
2023/03/01 05:19:22;;;;;;;;;;;;;;;;;;5017471;28;6912;-48
2023/03/01 05:22:03;;;;;;;;;;;;;;;;;;5155963;22;7087;-51
2023/03/01 05:24:32;;;;;;;;;;;;;;;;;;5035106;28;7761;-60
2023/03/01 05:27:06;;;;;;;;;;;;;;;;;;5036792;28;7102;-60
2023/03/01 05:29:34;;;;;;;;;;;;;;;;;;5036745;28;6881;-60
2023/03/01 05:32:16;;;;;;;;;;;;;;;;;;5036411;28;7326;-60
2023/03/01 05:34:42;;;;;;;;;;;;;;;;;;5034112;28;7165;-60
2023/03/01 05:37:29;;;;;;;;;;;;;;;;;;5036672;28;7090;-60
2023/03/01 05:39:54;;;;;;;;;;;;;;;;;;5035380;28;7159;-60
2023/03/01 05:42:26;;;;;;;;;;;;;;;;;;5035884;28;7896;-60
2023/03/01 05:44:51;;;;;;;;;;;;;;;;;;5033964;28;7211;-60
2023/03/01 05:47:43;;;;;;;;;;;;;;;;;;5036518;28;7137;-60
2023/03/01 05:50:19;;;;;;;;;;;;;;;;;;5036253;28;7397;-47
2023/03/01 05:53:05;;;;;;;;;;;;;;;;;;5036116;28;7468;-60
2023/03/01 05:55:31;;;;;;;;;;;;;;;;;;5033729;28;7131;-60
2023/03/01 05:58:06;;;;;;;;;;;;;;;;;;5035967;28;6985;-60
2023/03/01 06:00:32;;;;;;;;;;;;;;;;;;5036019;28;7457;-60
2023/03/01 06:03:05;;;;;;;;;;;;;;;;;;5036122;28;6957;-60
2023/03/01 06:05:31;;;;;;;;;;;;;;;;;;5033415;28;7225;-60
2023/03/01 06:10:59;;;;;;;;;;;;;;;;;;5035662;28;7026;-60
2023/03/01 06:13:25;;;;;;;;;;;;;;;;;;5035764;28;7050;-60
2023/03/01 06:15:55;;;;;;;;;;;;;;;;;;5033121;28;7288;-60
2023/03/01 06:18:21;;;;;;;;;;;;;;;;;;5035889;28;6828;-60
2023/03/01 06:23:49;;;;;;;;;;;;;;;;;;5035456;28;7390;-60
2023/03/01 06:26:15;;;;;;;;;;;;;;;;;;5036036;28;7004;-60
2023/03/01 06:28:48;;;;;;;;;;;;;;;;;;5036260;28;7136;-60
2023/03/01 06:31:14;;;;;;;;;;;;;;;;;;5036001;28;6899;-61
2023/03/01 06:36:56;;;;;;;;;;;;;;;;;;5035722;28;6995;-59
2023/03/01 06:39:21;;;;;;;;;;;;;;;;;;5035787;28;7723;-61
2023/03/01 06:44:50;;;;;;;;;;;;;;;;;;5019699;28;6975;-60
2023/03/01 06:47:18;;;;;;;;;;;;;;;;;;5017169;28;7244;-59
2023/03/01 06:49:44;;;;;;;;;;;;;;;;;;5023022;28;7217;-59
2023/03/01 06:52:09;;;;;;;;;;;;;;;;;;5025329;28;7111;-60
2023/03/01 06:54:37;;;;;;;;;;;;;;;;;;5022446;28;7103;-60
2023/03/01 06:57:03;;;;;;;;;;;;;;;;;;5001091;28;8428;-60
2023/03/01 06:59:28;;;;;;;;;;;;;;;;;;5023462;28;6900;-60
2023/03/01 07:01:53;;;;;;;;;;;;;;;;;;5015805;28;6905;-60
2023/03/01 07:07:50;;;;;;;;;;;;;;;;;;5014971;28;6744;-60
2023/03/01 07:10:17;;;;;;;;;;;;;;;;;;5017746;28;7442;-60
2023/03/01 07:12:42;;;;;;;;;;;;;;;;;;5016070;28;7096;-60
2023/03/01 07:15:09;;;;;;;;;;;;;;;;;;5015461;28;7076;-60
2023/03/01 07:17:54;;;;;;;;;;;;;;;;;;5015479;28;7015;-60
2023/03/01 07:20:24;;;;;;;;;;;;;;;;;;5015149;28;7190;-60
2023/03/01 07:22:51;;;;;;;;;;;;;;;;;;5014900;28;7142;-61
2023/03/01 07:25:16;;;;;;;;;;;;;;;;;;5014807;28;7237;-48
2023/03/01 07:27:42;;;;;;;;;;;;;;;;;;5015788;28;7137;-50
2023/03/01 07:30:08;;;;;;;;;;;;;;;;;;5014884;28;6927;-46
2023/03/01 07:32:33;;;;;;;;;;;;;;;;;;5015274;28;7086;-47
2023/03/01 07:35:02;;;;;;;;;;;;;;;;;;5015253;28;7353;-49
2023/03/01 07:37:28;;;;;;;;;;;;;;;;;;5015345;28;7445;-47
2023/03/01 07:39:53;;;;;;;;;;;;;;;;;;5079442;23;7489;-60
2023/03/01 07:42:19;;;;;;;;;;;;;;;;;;5043905;28;8872;-60
2023/03/01 07:44:44;;;;;;;;;;;;;;;;;;5034015;28;7024;-60
2023/03/01 07:47:10;;;;;;;;;;;;;;;;;;5033647;28;7015;-61
2023/03/01 07:49:35;;;;;;;;;;;;;;;;;;5034548;28;7377;-60
2023/03/01 07:52:01;;;;;;;;;;;;;;;;;;5016105;28;8404;-60
2023/03/01 07:54:26;;;;;;;;;;;;;;;;;;5017825;28;8407;-60
2023/03/01 07:56:52;;;;;;;;;;;;;;;;;;5035530;28;6912;-60
2023/03/01 07:59:17;;;;;;;;;;;;;;;;;;5034847;28;7079;-60
2023/03/01 08:01:48;;;;;;;;;;;;;;;;;;5034659;28;7192;-60
2023/03/01 08:04:14;;;;;;;;;;;;;;;;;;5035239;28;7233;-60
2023/03/01 08:06:40;;;;;;;;;;;;;;;;;;5038686;28;7274;-60
2023/03/01 08:09:08;;;;;;;;;;;;;;;;;;5038805;28;7345;-60
2023/03/01 08:11:37;;;;;;;;;;;;;;;;;;5038512;28;6930;-60
2023/03/01 08:14:03;;;;;;;;;;;;;;;;;;5039850;28;7494;-60
2023/03/01 08:16:29;;;;;;;;;;;;;;;;;;5038571;28;7251;-60
2023/03/01 08:18:56;;;;;;;;;;;;;;;;;;5038639;28;7062;-60
2023/03/01 08:21:42;;;;;;;;;;;;;;;;;;5038037;28;7160;-60
2023/03/01 08:24:10;;;;;;;;;;;;;;;;;;5038542;28;7232;-60
2023/03/01 08:26:36;;;;;;;;;;;;;;;;;;5038179;28;7234;-64
2023/03/01 08:29:03;;;;;;;;;;;;;;;;;;5032597;28;7172;-60
2023/03/01 08:31:45;;;;;;;;;;;;;;;;;;5023911;28;6999;-60
2023/03/01 08:34:13;;;;;;;;;;;;;;;;;;5019088;28;8526;-60
2023/03/01 08:36:46;;;;;;;;;;;;;;;;;;5035790;28;8162;-60
2023/03/01 08:39:18;;;;;;;;;;;;;;;;;;5031710;28;7216;-60
2023/03/01 08:41:43;;;;;;;;;;;;;;;;;;5018398;28;7148;-60
2023/03/01 08:47:28;;;;;;;;;;;;;;;;;;5017438;28;6753;-60
2023/03/01 08:49:53;;;;;;;;;;;;;;;;;;5016830;28;7175;-60
2023/03/01 08:52:19;;;;;;;;;;;;;;;;;;5017198;28;7157;-60
2023/03/01 08:54:46;;;;;;;;;;;;;;;;;;5017315;28;7212;-60
2023/03/01 08:57:38;;;;;;;;;;;;;;;;;;5018076;28;7154;-60
2023/03/01 09:00:08;;;;;;;;;;;;;;;;;;5017626;28;7211;-60
2023/03/01 09:02:45;;;;;;;;;;;;;;;;;;5017453;28;7403;-60
2023/03/01 09:05:10;;;;;;;;;;;;;;;;;;5009145;28;7027;-63
2023/03/01 09:07:41;;;;;;;;;;;;;;;;;;5008969;28;7001;-60
2023/03/01 09:10:07;;;;;;;;;;;;;;;;;;4998804;28;8928;-60
2023/03/01 09:15:42;;;;;;;;;;;;;;;;;;5017306;28;6937;-61
2023/03/01 09:18:08;;;;;;;;;;;;;;;;;;5017037;28;7195;-61
2023/03/01 09:23:44;;;;;;;;;;;;;;;;;;5017023;28;6690;-61
2023/03/01 09:26:16;;;;;;;;;;;;;;;;;;4981838;28;7039;-65
2023/03/01 09:28:46;;;;;;;;;;;;;;;;;;4998722;28;7204;-55
2023/03/01 09:31:13;;;;;;;;;;;;;;;;;;5002208;28;7060;-56
2023/03/01 09:33:40;;;;;;;;;;;;;;;;;;5008128;28;7410;-55
2023/03/01 09:36:13;;;;;;;;;;;;;;;;;;5001379;28;7063;-60
2023/03/01 09:38:39;;;;;;;;;;;;;;;;;;5002377;28;6957;-60
2023/03/01 09:41:28;;;;;;;;;;;;;;;;;;5018702;28;7036;-60
2023/03/01 09:43:59;;;;;;;;;;;;;;;;;;5009249;28;7132;-60
2023/03/01 09:46:26;;;;;;;;;;;;;;;;;;5007821;28;7586;-60
2023/03/01 09:48:57;;;;;;;;;;;;;;;;;;5013640;28;7204;-60
2023/03/01 09:51:30;;;;;;;;;;;;;;;;;;4992345;28;7782;-61
2023/03/01 09:53:58;;;;;;;;;;;;;;;;;;4991713;28;7372;-60
2023/03/01 09:56:41;;;;;;;;;;;;;;;;;;4995497;28;7402;-60
2023/03/01 09:59:07;;;;;;;;;;;;;;;;;;4991421;28;7086;-60
2023/03/01 10:01:49;;;;;;;;;;;;;;;;;;4997954;28;7545;-60
2023/03/01 10:04:33;;;;;;;;;;;;;;;;;;4996122;28;8709;-60
2023/03/01 10:07:13;;;;;;;;;;;;;;;;;;5016563;28;7430;-60
2023/03/01 10:09:41;;;;;;;;;;;;;;;;;;5013742;28;7039;-60
2023/03/01 10:12:15;;;;;;;;;;;;;;;;;;5015450;28;7530;-60
2023/03/01 10:14:46;;;;;;;;;;;;;;;;;;5020093;28;7369;-60
2023/03/01 10:17:32;;;;;;;;;;;;;;;;;;5031813;28;7838;-60
2023/03/01 10:20:26;;;;;;;;;;;;;;;;;;5035831;28;7488;-60
2023/03/01 10:22:55;;;;;;;;;;;;;;;;;;5036202;28;7394;-60
2023/03/01 10:25:32;;;;;;;;;;;;;;;;;;5036013;28;7173;-60
2023/03/01 15:23:39;;;;;;;;;;;;;;;;;;5052274;28;6684;-60
2023/03/01 15:26:05;;;;;;;;;;;;;;;;;;5071958;28;7451;-60
2023/03/01 15:28:33;;;;;;;;;;;;;;;;;;5072585;28;6966;-60
2023/03/01 15:31:03;;;;;;;;;;;;;;;;;;5072035;28;7140;-53
2023/03/01 15:33:33;;;;;;;;;;;;;;;;;;5071925;28;6999;-55
2023/03/01 15:36:00;;;;;;;;;;;;;;;;;;5071729;28;7442;-55
2023/03/01 15:38:50;;;;;;;;;;;;;;;;;;5071257;28;7418;-54
2023/03/01 15:44:33;;;;;;;;;;;;;;;;;;5071473;28;7476;-55
2023/03/01 15:46:59;;;;;;;;;;;;;;;;;;5071609;28;7119;-59
2023/03/01 15:49:48;;;;;;;;;;;;;;;;;;5071735;28;7220;-59
2023/03/01 15:55:02;;;;;;;;;;;;;;;;;;5071776;28;7002;-59
2023/03/01 15:57:33;;;;;;;;;;;;;;;;;;5071576;28;6970;-60
2023/03/01 15:59:59;;;;;;;;;;;;;;;;;;5071348;28;7201;-60
2023/03/01 16:05:31;;;;;;;;;;;;;;;;;;5071467;28;6827;-60
2023/03/01 16:07:57;;;;;;;;;;;;;;;;;;5071612;28;6792;-60
2023/03/01 16:10:24;;;;;;;;;;;;;;;;;;5070876;28;6974;-60
2023/03/01 16:12:52;;;;;;;;;;;;;;;;;;5071189;28;7193;-60
2023/03/01 16:15:31;;;;;;;;;;;;;;;;;;5069017;28;7148;-60
2023/03/01 16:18:00;;;;;;;;;;;;;;;;;;5069881;28;7820;-60
2023/03/01 16:20:33;;;;;;;;;;;;;;;;;;5059429;28;7186;-54
2023/03/01 16:23:03;;;;;;;;;;;;;;;;;;5040767;28;6836;-56
2023/03/01 16:25:45;;;;;;;;;;;;;;;;;;5046855;28;7136;-61
2023/03/01 16:28:11;;;;;;;;;;;;;;;;;;5027865;28;8385;-56
2023/03/01 16:30:48;;;;;;;;;;;;;;;;;;5037567;28;7093;-54
2023/03/01 16:33:16;;;;;;;;;;;;;;;;;;5030637;28;6986;-56
2023/03/01 16:35:45;;;;;;;;;;;;;;;;;;5031087;28;7204;-56
2023/03/01 16:38:15;;;;;;;;;;;;;;;;;;5031189;28;7815;-54
2023/03/01 16:40:47;;;;;;;;;;;;;;;;;;5028290;28;7747;-56
2023/03/01 16:43:13;;;;;;;;;;;;;;;;;;5026552;28;7019;-55
2023/03/01 16:45:52;;;;;;;;;;;;;;;;;;5027807;28;7031;-56
2023/03/01 16:48:18;;;;;;;;;;;;;;;;;;5031964;28;7038;-55
2023/03/01 16:51:04;;;;;;;;;;;;;;;;;;5037078;28;7205;-55
2023/03/01 16:53:29;;;;;;;;;;;;;;;;;;5019268;28;7092;-57
2023/03/01 16:56:13;;;;;;;;;;;;;;;;;;5036473;28;7206;-62
2023/03/01 16:58:40;;;;;;;;;;;;;;;;;;5036646;28;7046;-61
2023/03/01 17:04:12;;;;;;;;;;;;;;;;;;5037154;28;6749;-62
2023/03/01 17:06:38;;;;;;;;;;;;;;;;;;5037164;28;7207;-61
2023/03/01 17:09:04;;;;;;;;;;;;;;;;;;5036903;28;7155;-61
2023/03/01 17:11:30;;;;;;;;;;;;;;;;;;5036797;28;7031;-61
2023/03/01 17:14:15;;;;;;;;;;;;;;;;;;5036859;28;7172;-61
2023/03/01 17:16:43;;;;;;;;;;;;;;;;;;5036631;28;7169;-61
2023/03/01 17:19:09;;;;;;;;;;;;;;;;;;5046604;28;7037;-61
2023/03/01 17:21:36;;;;;;;;;;;;;;;;;;5056596;28;6999;-61
2023/03/01 17:24:02;;;;;;;;;;;;;;;;;;5056678;28;7185;-61
2023/03/01 17:26:34;;;;;;;;;;;;;;;;;;5056442;28;7027;-61
2023/03/01 17:32:03;;;;;;;;;;;;;;;;;;5056193;28;6693;-61
2023/03/01 17:34:30;;;;;;;;;;;;;;;;;;5056392;28;7043;-61
2023/03/01 17:40:22;;;;;;;;;;;;;;;;;;5056087;28;6692;-54
2023/03/01 17:42:47;;;;;;;;;;;;;;;;;;5054753;28;7217;-56
2023/03/01 17:48:48;;;;;;;;;;;;;;;;;;5055800;28;6700;-53
2023/03/01 17:54:17;;;;;;;;;;;;;;;;;;5055796;28;6919;-56
2023/03/01 17:56:43;;;;;;;;;;;;;;;;;;5055927;28;7125;-54
2023/03/01 17:59:11;;;;;;;;;;;;;;;;;;5055737;28;6928;-53
2023/03/01 18:01:41;;;;;;;;;;;;;;;;;;5055743;28;7356;-56
2023/03/01 18:04:07;;;;;;;;;;;;;;;;;;5055659;28;7053;-51
2023/03/01 18:06:39;;;;;;;;;;;;;;;;;;5055829;28;7037;-53
2023/03/01 18:09:06;;;;;;;;;;;;;;;;;;5055302;28;7190;-54
2023/03/01 18:11:57;;;;;;;;;;;;;;;;;;5055588;28;6813;-55
2023/03/01 18:14:23;;;;;;;;;;;;;;;;;;5055517;28;7434;-53
2023/03/01 18:16:49;;;;;;;;;;;;;;;;;;5055580;28;7173;-55
2023/03/01 18:22:17;;;;;;;;;;;;;;;;;;5055164;28;6928;-52
2023/03/01 18:24:44;;;;;;;;;;;;;;;;;;5056168;28;7227;-49
2023/03/01 18:27:09;;;;;;;;;;;;;;;;;;5055424;28;6898;-55
2023/03/01 18:29:35;;;;;;;;;;;;;;;;;;5054776;28;8037;-54
2023/03/01 18:32:15;;;;;;;;;;;;;;;;;;5054931;28;6934;-55
2023/03/01 18:34:41;;;;;;;;;;;;;;;;;;5055120;28;7259;-53
2023/03/01 18:37:07;;;;;;;;;;;;;;;;;;5055211;28;7549;-55
2023/03/01 18:39:55;;;;;;;;;;;;;;;;;;5055087;28;7273;-52
2023/03/01 18:42:20;;;;;;;;;;;;;;;;;;5055233;28;7579;-49
2023/03/01 18:47:49;;;;;;;;;;;;;;;;;;5054900;28;6700;-53
2023/03/01 18:50:17;;;;;;;;;;;;;;;;;;5055489;28;7110;-53
2023/03/01 18:56:00;;;;;;;;;;;;;;;;;;5054705;28;6692;-52
2023/03/01 18:58:26;;;;;;;;;;;;;;;;;;5054407;28;6980;-54
2023/03/01 19:00:52;;;;;;;;;;;;;;;;;;5054644;28;7143;-53
2023/03/01 19:03:18;;;;;;;;;;;;;;;;;;5054598;28;7126;-51
2023/03/01 19:05:44;;;;;;;;;;;;;;;;;;5054852;28;7124;-51
2023/03/01 19:08:10;;;;;;;;;;;;;;;;;;5055064;28;7242;-53
2023/03/01 19:10:36;;;;;;;;;;;;;;;;;;5054688;28;7365;-61
2023/03/01 19:16:22;;;;;;;;;;;;;;;;;;5054571;28;6688;-61
2023/03/01 19:21:50;;;;;;;;;;;;;;;;;;5054401;28;6718;-61
2023/03/01 19:24:16;;;;;;;;;;;;;;;;;;5055069;28;7429;-61
2023/03/01 19:27:10;;;;;;;;;;;;;;;;;;5054541;28;6994;-61
2023/03/01 19:29:36;;;;;;;;;;;;;;;;;;5054424;28;6914;-61
2023/03/01 19:38:13;;;;;;;;;;;;;;;;;;5054172;28;7030;-61
2023/03/01 19:40:39;;;;;;;;;;;;;;;;;;5054511;28;6991;-61
2023/03/01 19:43:04;;;;;;;;;;;;;;;;;;5054048;28;7168;-61
2023/03/01 19:45:30;;;;;;;;;;;;;;;;;;5034471;28;7112;-61
2023/03/01 19:47:56;;;;;;;;;;;;;;;;;;5034529;28;7004;-61
2023/03/01 19:53:24;;;;;;;;;;;;;;;;;;5054070;28;6685;-61
2023/03/01 19:55:51;;;;;;;;;;;;;;;;;;5054284;28;7037;-61
2023/03/01 19:58:32;;;;;;;;;;;;;;;;;;5054174;28;7343;-61
2023/03/01 20:00:59;;;;;;;;;;;;;;;;;;5053813;28;8008;-61
2023/03/01 20:03:38;;;;;;;;;;;;;;;;;;5053997;28;7058;-61
2023/03/01 20:06:08;;;;;;;;;;;;;;;;;;5038464;28;7421;-61
2023/03/01 20:08:34;;;;;;;;;;;;;;;;;;5057815;28;6919;-61
2023/03/01 20:11:27;;;;;;;;;;;;;;;;;;5057983;28;7084;-61
2023/03/01 20:13:52;;;;;;;;;;;;;;;;;;5057831;28;7079;-61
2023/03/01 20:16:19;;;;;;;;;;;;;;;;;;5061938;22;8704;-60
2023/03/01 20:21:48;;;;;;;;;;;;;;;;;;4998189;28;6983;-61
2023/03/01 20:24:32;;;;;;;;;;;;;;;;;;4998639;28;7193;-60
2023/03/01 20:27:00;;;;;;;;;;;;;;;;;;4998937;28;7206;-61
2023/03/01 20:29:25;;;;;;;;;;;;;;;;;;4998986;28;7522;-60
2023/03/01 20:31:51;;;;;;;;;;;;;;;;;;4998237;28;7183;-60
2023/03/01 20:34:16;;;;;;;;;;;;;;;;;;4997817;28;6940;-60
2023/03/01 20:39:34;;;;;;;;;;;;;;;;;;4998099;28;6908;-60
2023/03/01 20:41:59;;;;;;;;;;;;;;;;;;4997640;28;8495;-60
2023/03/01 20:44:58;;;;;;;;;;;;;;;;;;4998474;28;7542;-60
2023/03/01 20:47:23;;;;;;;;;;;;;;;;;;4997567;28;8961;-60
2023/03/01 20:49:50;;;;;;;;;;;;;;;;;;4997719;28;7171;-61
2023/03/01 20:55:15;;;;;;;;;;;;;;;;;;4991774;28;6959;-61
2023/03/01 21:03:50;;;;;;;;;;;;;;;;;;4997051;28;6956;-61
2023/03/01 21:06:16;;;;;;;;;;;;;;;;;;4997307;28;6946;-61
2023/03/01 21:08:44;;;;;;;;;;;;;;;;;;4997545;28;7172;-61
2023/03/01 21:11:10;;;;;;;;;;;;;;;;;;4997501;28;7149;-61
2023/03/01 21:19:22;;;;;;;;;;;;;;;;;;4997484;28;6967;-60
2023/03/01 21:22:07;;;;;;;;;;;;;;;;;;4997246;28;7164;-60
2023/03/01 21:24:32;;;;;;;;;;;;;;;;;;4997129;28;7089;-60
2023/03/01 21:27:05;;;;;;;;;;;;;;;;;;4997301;28;6939;-60
2023/03/01 21:29:39;;;;;;;;;;;;;;;;;;4996113;28;7131;-61
2023/03/01 21:32:17;;;;;;;;;;;;;;;;;;4996115;28;7181;-61
2023/03/01 21:34:43;;;;;;;;;;;;;;;;;;4997011;28;7319;-61
2023/03/01 21:37:09;;;;;;;;;;;;;;;;;;4997055;28;7347;-60
2023/03/01 21:39:34;;;;;;;;;;;;;;;;;;4996958;28;6918;-60
2023/03/01 21:49:40;;;;;;;;;;;;;;;;;;5055229;28;7358;-60
2023/03/01 21:52:06;;;;;;;;;;;;;;;;;;5052569;28;8384;-60
2023/03/01 21:54:34;;;;;;;;;;;;;;;;;;5035823;28;7471;-61
2023/03/01 21:56:59;;;;;;;;;;;;;;;;;;5035408;28;6943;-61
2023/03/01 21:59:44;;;;;;;;;;;;;;;;;;5035750;28;7088;-60
2023/03/01 22:02:15;;;;;;;;;;;;;;;;;;5035665;28;6988;-61
2023/03/01 22:04:56;;;;;;;;;;;;;;;;;;5035865;28;7238;-61
2023/03/01 22:07:21;;;;;;;;;;;;;;;;;;5035061;28;7158;-61
2023/03/01 22:09:46;;;;;;;;;;;;;;;;;;5035188;28;7122;-61
2023/03/01 22:12:13;;;;;;;;;;;;;;;;;;5034195;28;7126;-61
2023/03/01 22:14:39;;;;;;;;;;;;;;;;;;5020052;28;7184;-61
2023/03/01 22:19:56;;;;;;;;;;;;;;;;;;5026179;28;7034;-61
2023/03/01 22:22:29;;;;;;;;;;;;;;;;;;5035571;28;7226;-61
2023/03/01 22:24:54;;;;;;;;;;;;;;;;;;5035871;28;7410;-61
2023/03/01 22:27:46;;;;;;;;;;;;;;;;;;5035405;28;7098;-61
2023/03/01 22:30:12;;;;;;;;;;;;;;;;;;5035246;28;7217;-61
2023/03/01 22:32:38;;;;;;;;;;;;;;;;;;5035626;28;7057;-61
2023/03/01 22:35:23;;;;;;;;;;;;;;;;;;5035592;28;7009;-61
2023/03/01 22:37:48;;;;;;;;;;;;;;;;;;5035871;28;7159;-61
2023/03/01 22:43:17;;;;;;;;;;;;;;;;;;5035071;28;6681;-61
2023/03/01 22:45:42;;;;;;;;;;;;;;;;;;5035187;28;7012;-61
2023/03/01 22:48:07;;;;;;;;;;;;;;;;;;5032854;28;7378;-61
2023/03/01 22:50:33;;;;;;;;;;;;;;;;;;5035027;28;7652;-61
2023/03/01 22:53:00;;;;;;;;;;;;;;;;;;5035004;28;7329;-61
2023/03/01 22:55:26;;;;;;;;;;;;;;;;;;5034859;28;7147;-61
2023/03/01 23:01:24;;;;;;;;;;;;;;;;;;5034754;28;6705;-61
2023/03/01 23:03:50;;;;;;;;;;;;;;;;;;5034517;28;7569;-61
2023/03/01 23:06:24;;;;;;;;;;;;;;;;;;5034803;28;7138;-61
2023/03/01 23:08:51;;;;;;;;;;;;;;;;;;5034869;28;7188;-61
2023/03/01 23:17:26;;;;;;;;;;;;;;;;;;5034665;28;6685;-61
2023/03/01 23:19:51;;;;;;;;;;;;;;;;;;5034802;28;7067;-61
2023/03/01 23:25:43;;;;;;;;;;;;;;;;;;5034397;28;6987;-61
2023/03/01 23:28:09;;;;;;;;;;;;;;;;;;5034386;28;7196;-61
2023/03/01 23:36:43;;;;;;;;;;;;;;;;;;5035503;28;6948;-61
2023/03/01 23:39:11;;;;;;;;;;;;;;;;;;5035237;28;6930;-61
2023/03/01 23:41:39;;;;;;;;;;;;;;;;;;5037533;28;6945;-61
2023/03/01 23:47:26;;;;;;;;;;;;;;;;;;5038569;28;6690;-61
2023/03/01 23:49:51;;;;;;;;;;;;;;;;;;5038233;28;7136;-61
2023/03/01 23:52:17;;;;;;;;;;;;;;;;;;5038341;28;7122;-61
2023/03/01 23:54:43;;;;;;;;;;;;;;;;;;5038179;28;7147;-61
